createdAt,value
2023-03-16T00:02:19.746Z,2.39
2023-03-16T00:04:49.233Z,2.42
2023-03-16T00:07:17.623Z,2.51
2023-03-16T00:09:47.311Z,2.46
2023-03-16T00:12:17.646Z,2.52
2023-03-16T00:14:48.144Z,2.59
2023-03-16T00:17:20.071Z,2.67
2023-03-16T00:19:51.571Z,2.66
2023-03-16T00:22:20.064Z,2.73
2023-03-16T00:24:49.873Z,2.78
2023-03-16T00:27:18.552Z,2.81
2023-03-16T00:29:49.054Z,2.81
2023-03-16T00:32:19.380Z,2.85
2023-03-16T00:34:48.617Z,2.86
2023-03-16T00:37:19.342Z,2.91
2023-03-16T00:39:49.088Z,2.86
2023-03-16T00:42:18.939Z,2.86
2023-03-16T00:44:48.050Z,2.94
2023-03-16T00:47:16.437Z,2.94
2023-03-16T00:49:45.494Z,2.97
2023-03-16T00:52:15.012Z,2.97
2023-03-16T00:54:44.584Z,2.92
2023-03-16T00:57:16.424Z,2.98
2023-03-16T00:59:44.798Z,3.02
2023-03-16T01:02:13.993Z,2.88
2023-03-16T01:04:44.320Z,2.89
2023-03-16T01:07:15.036Z,2.92
2023-03-16T01:09:43.859Z,2.98
2023-03-16T01:12:16.844Z,2.97
2023-03-16T01:14:46.964Z,2.97
2023-03-16T01:17:17.187Z,3.03
2023-03-16T01:19:46.226Z,3.08
2023-03-16T01:22:16.084Z,3.10
2023-03-16T01:24:46.650Z,3.18
2023-03-16T01:27:16.553Z,3.14
2023-03-16T01:29:45.211Z,3.14
2023-03-16T01:32:14.302Z,3.18
2023-03-16T01:34:43.407Z,3.20
2023-03-16T01:37:13.871Z,3.12
2023-03-16T01:40:00.727Z,3.18
2023-03-16T01:42:30.500Z,3.12
2023-03-16T01:45:05.404Z,3.22
2023-03-16T01:47:38.332Z,3.25
2023-03-16T01:50:08.967Z,3.19
2023-03-16T01:52:40.980Z,3.14
2023-03-16T01:55:13.135Z,3.18
2023-03-16T01:57:45.963Z,3.20
2023-03-16T02:00:19.475Z,3.21
2023-03-16T02:03:16.342Z,3.22
2023-03-16T02:06:10.852Z,3.28
2023-03-16T02:08:45.214Z,3.22
2023-03-16T02:11:17.906Z,3.23
2023-03-16T02:14:04.164Z,3.29
2023-03-16T02:16:32.790Z,3.36
2023-03-16T02:19:01.271Z,3.33
2023-03-16T02:21:35.637Z,3.26
2023-03-16T02:24:06.495Z,3.33
2023-03-16T02:26:44.781Z,3.27
2023-03-16T02:29:27.760Z,3.33
2023-03-16T02:31:59.855Z,3.29
2023-03-16T02:34:29.777Z,3.34
2023-03-16T02:36:59.943Z,3.31
2023-03-16T02:39:29.459Z,3.28
2023-03-16T02:41:58.043Z,3.34
2023-03-16T02:44:29.993Z,3.28
2023-03-16T02:47:04.656Z,3.26
2023-03-16T02:49:37.430Z,3.26
2023-03-16T02:52:07.029Z,3.24
2023-03-16T02:54:35.645Z,3.22
2023-03-16T02:57:04.851Z,3.29
2023-03-16T02:59:34.296Z,3.26
2023-03-16T03:02:04.264Z,3.26
2023-03-16T03:04:32.951Z,3.27
2023-03-16T03:07:04.833Z,3.26
2023-03-16T03:09:38.887Z,3.22
2023-03-16T03:12:07.317Z,3.16
2023-03-16T03:14:38.682Z,3.25
2023-03-16T03:17:10.666Z,3.29
2023-03-16T03:19:39.033Z,3.19
2023-03-16T03:22:07.451Z,3.20
2023-03-16T03:24:36.411Z,3.22
2023-03-16T03:27:05.751Z,3.16
2023-03-16T03:29:36.013Z,3.27
2023-03-16T03:32:05.440Z,3.25
2023-03-16T03:34:35.199Z,3.29
2023-03-16T03:37:03.864Z,3.28
2023-03-16T03:39:32.659Z,3.27
2023-03-16T03:42:03.033Z,3.31
2023-03-16T03:44:34.489Z,3.27
2023-03-16T03:47:03.097Z,3.33
2023-03-16T03:49:32.617Z,3.37
2023-03-16T03:52:04.926Z,3.33
2023-03-16T03:54:33.330Z,3.36
2023-03-16T03:57:06.965Z,3.32
2023-03-16T03:59:42.342Z,3.37
2023-03-16T04:02:29.471Z,3.38
2023-03-16T04:04:58.466Z,3.44
2023-03-16T04:07:28.208Z,3.42
2023-03-16T04:10:02.143Z,3.46
2023-03-16T04:12:36.575Z,3.45
2023-03-16T04:15:06.023Z,3.40
2023-03-16T04:17:42.141Z,3.43
2023-03-16T04:20:16.028Z,3.47
2023-03-16T04:22:48.587Z,3.45
2023-03-16T04:25:19.244Z,3.49
2023-03-16T04:27:49.242Z,3.47
2023-03-16T04:30:18.988Z,3.37
2023-03-16T04:32:52.156Z,3.27
2023-03-16T04:35:22.090Z,3.27
2023-03-16T04:37:55.843Z,3.30
2023-03-16T04:40:30.712Z,3.29
2023-03-16T04:43:07.977Z,3.26
2023-03-16T04:45:37.269Z,3.43
2023-03-16T04:48:06.508Z,3.44
2023-03-16T04:50:35.494Z,3.43
2023-03-16T04:53:05.473Z,3.37
2023-03-16T04:55:34.411Z,3.30
2023-03-16T04:58:03.537Z,3.29
2023-03-16T05:00:35.968Z,3.38
2023-03-16T05:03:10.219Z,3.45
2023-03-16T05:05:39.175Z,3.37
2023-03-16T05:08:10.749Z,3.37
2023-03-16T05:10:41.092Z,3.34
2023-03-16T05:13:09.593Z,3.25
2023-03-16T05:15:39.257Z,3.32
2023-03-16T05:18:24.893Z,3.24
2023-03-16T05:20:55.793Z,3.18
2023-03-16T05:23:29.465Z,3.21
2023-03-16T05:26:02.796Z,3.24
2023-03-16T05:28:33.645Z,3.24
2023-03-16T05:31:05.735Z,3.21
2023-03-16T05:33:40.648Z,3.26
2023-03-16T05:36:13.019Z,3.36
2023-03-16T05:38:45.522Z,3.34
2023-03-16T05:41:21.485Z,3.34
2023-03-16T05:44:06.198Z,3.35
2023-03-16T05:46:54.097Z,3.26
2023-03-16T05:49:22.671Z,3.35
2023-03-16T05:51:51.591Z,3.36
2023-03-16T05:54:21.656Z,3.30
2023-03-16T05:56:50.000Z,3.27
2023-03-16T05:59:19.040Z,3.40
2023-03-16T06:01:53.054Z,3.45
2023-03-16T06:04:22.864Z,3.58
2023-03-16T06:06:51.294Z,3.55
2023-03-16T06:09:27.089Z,3.63
2023-03-16T06:11:57.098Z,3.63
2023-03-16T06:14:26.360Z,3.68
2023-03-16T06:16:56.669Z,3.61
2023-03-16T06:19:25.663Z,3.60
2023-03-16T06:21:59.426Z,3.76
2023-03-16T06:24:30.992Z,3.72
2023-03-16T06:26:59.435Z,3.67
2023-03-16T06:29:34.358Z,3.76
2023-03-16T06:32:04.230Z,3.88
2023-03-16T06:34:34.671Z,3.91
2023-03-16T06:37:04.982Z,3.99
2023-03-16T06:39:35.526Z,4.07
2023-03-16T06:42:05.338Z,4.27
2023-03-16T06:44:34.206Z,4.19
2023-03-16T06:47:10.348Z,4.27
2023-03-16T06:49:38.950Z,4.33
2023-03-16T06:52:15.628Z,4.33
2023-03-16T06:54:45.627Z,4.32
2023-03-16T06:57:14.989Z,4.37
2023-03-16T06:59:44.517Z,4.37
2023-03-16T07:02:14.891Z,4.38
2023-03-16T07:04:43.955Z,4.39
2023-03-16T07:07:13.075Z,4.50
2023-03-16T07:09:42.032Z,4.54
2023-03-16T07:12:13.695Z,4.54
2023-03-16T07:14:42.097Z,4.56
2023-03-16T07:17:13.362Z,4.64
2023-03-16T07:19:41.800Z,4.71
2023-03-16T07:22:10.662Z,4.71
2023-03-16T07:24:41.627Z,4.81
2023-03-16T07:27:12.354Z,4.92
2023-03-16T07:29:42.807Z,4.93
2023-03-16T07:32:11.450Z,5.06
2023-03-16T07:34:41.923Z,5.00
2023-03-16T07:37:10.377Z,4.97
2023-03-16T07:39:39.105Z,4.85
2023-03-16T07:42:12.535Z,4.89
2023-03-16T07:44:53.021Z,4.87
2023-03-16T07:47:23.299Z,4.87
2023-03-16T07:49:53.744Z,4.94
2023-03-16T07:52:22.461Z,5.00
2023-03-16T07:54:52.193Z,5.13
2023-03-16T07:57:20.982Z,5.23
2023-03-16T07:59:49.323Z,5.42
2023-03-16T08:02:21.898Z,5.56
2023-03-16T08:04:51.456Z,5.78
2023-03-16T08:07:19.871Z,5.98
2023-03-16T08:09:55.421Z,6.18
2023-03-16T08:12:30.139Z,6.26
2023-03-16T08:14:58.691Z,6.14
2023-03-16T08:17:31.573Z,6.12
2023-03-16T08:20:01.861Z,6.05
2023-03-16T08:22:30.929Z,6.05
2023-03-16T08:24:59.287Z,6.02
2023-03-16T08:27:29.464Z,6.17
2023-03-16T08:30:04.947Z,6.23
2023-03-16T08:32:36.477Z,6.17
2023-03-16T08:35:05.427Z,6.17
2023-03-16T08:37:34.575Z,6.35
2023-03-16T08:40:03.875Z,6.38
2023-03-16T08:42:32.497Z,6.58
2023-03-16T08:45:12.370Z,6.77
2023-03-16T08:47:44.820Z,6.90
2023-03-16T08:50:15.535Z,6.98
2023-03-16T08:52:44.170Z,6.96
2023-03-16T08:55:13.200Z,7.15
2023-03-16T08:57:41.660Z,7.35
2023-03-16T09:00:13.635Z,7.18
2023-03-16T09:02:44.513Z,7.22
2023-03-16T09:05:14.614Z,7.23
2023-03-16T09:07:43.587Z,7.31
2023-03-16T09:10:15.297Z,7.15
2023-03-16T09:12:44.470Z,7.51
2023-03-16T09:15:13.931Z,7.40
2023-03-16T09:17:45.033Z,7.60
2023-03-16T09:20:22.286Z,7.96
2023-03-16T09:22:55.656Z,8.25
2023-03-16T09:25:24.123Z,9.03
2023-03-16T09:27:52.613Z,9.40
2023-03-16T09:30:21.010Z,9.61
2023-03-16T09:32:50.790Z,9.56
2023-03-16T09:35:19.481Z,9.93
2023-03-16T09:38:04.679Z,10.80
2023-03-16T09:40:34.463Z,12.58
2023-03-16T09:43:19.946Z,13.17
2023-03-16T09:45:54.232Z,13.57
2023-03-16T09:48:25.102Z,13.36
2023-03-16T09:50:55.685Z,11.95
2023-03-16T09:53:29.256Z,12.32
2023-03-16T09:56:01.870Z,11.40
2023-03-16T09:58:32.109Z,11.19
2023-03-16T10:01:09.948Z,10.85
2023-03-16T10:03:57.207Z,10.85
2023-03-16T10:06:27.856Z,11.87
2023-03-16T10:09:07.427Z,12.34
2023-03-16T10:11:39.104Z,12.59
2023-03-16T10:14:17.582Z,13.73
2023-03-16T10:16:50.477Z,14.61
2023-03-16T10:19:25.755Z,14.07
2023-03-16T10:21:57.932Z,14.23
2023-03-16T10:24:42.755Z,14.43
2023-03-16T10:27:21.436Z,15.32
2023-03-16T10:29:50.388Z,16.15
2023-03-16T10:32:19.924Z,16.69
2023-03-16T10:34:57.512Z,16.56
2023-03-16T10:37:28.206Z,16.27
2023-03-16T10:39:57.191Z,15.68
2023-03-16T10:42:27.024Z,16.17
2023-03-16T10:45:01.955Z,16.38
2023-03-16T10:47:32.846Z,16.58
2023-03-16T10:50:14.193Z,17.08
2023-03-16T10:52:46.720Z,17.40
2023-03-16T10:55:20.458Z,17.17
2023-03-16T10:57:51.121Z,16.73
2023-03-16T11:00:23.080Z,16.09
2023-03-16T11:02:54.162Z,15.15
2023-03-16T11:05:31.126Z,14.94
2023-03-16T11:08:02.698Z,14.87
2023-03-16T11:10:36.255Z,14.47
2023-03-16T11:13:14.572Z,14.51
2023-03-16T11:15:49.992Z,13.77
2023-03-16T11:18:30.549Z,13.84
2023-03-16T11:21:06.354Z,13.98
2023-03-16T11:23:39.975Z,13.68
2023-03-16T11:26:17.461Z,13.65
2023-03-16T11:28:50.390Z,13.73
2023-03-16T11:31:24.884Z,13.94
2023-03-16T11:33:55.358Z,14.04
2023-03-16T11:36:39.804Z,14.33
2023-03-16T11:39:15.230Z,15.22
2023-03-16T11:41:56.459Z,15.78
2023-03-16T11:44:33.740Z,15.90
2023-03-16T11:47:09.048Z,15.92
2023-03-16T11:49:50.429Z,15.76
2023-03-16T11:52:34.281Z,15.31
2023-03-16T11:55:17.814Z,15.69
2023-03-16T11:57:58.569Z,15.69
2023-03-16T12:00:36.680Z,15.27
2023-03-16T12:03:25.386Z,15.18
2023-03-16T12:06:05.700Z,14.82
2023-03-16T12:09:13.381Z,14.35
2023-03-16T12:11:51.429Z,14.07
2023-03-16T12:14:25.270Z,14.21
2023-03-16T12:17:00.996Z,15.22
2023-03-16T12:19:41.132Z,15.37
2023-03-16T12:22:18.567Z,15.37
2023-03-16T12:24:49.041Z,15.00
2023-03-16T12:27:22.556Z,15.31
2023-03-16T12:30:03.516Z,14.96
2023-03-16T12:32:42.123Z,15.05
2023-03-16T12:35:25.479Z,15.66
2023-03-16T12:38:07.654Z,16.49
2023-03-16T12:40:46.408Z,16.71
2023-03-16T12:43:32.986Z,16.64
2023-03-16T12:46:08.059Z,15.91
2023-03-16T12:48:41.533Z,16.31
2023-03-16T12:51:10.845Z,17.18
2023-03-16T12:53:45.574Z,17.00
2023-03-16T12:56:17.878Z,17.53
2023-03-16T12:58:49.464Z,17.56
2023-03-16T13:01:21.059Z,17.02
2023-03-16T13:03:51.762Z,16.74
2023-03-16T13:06:24.128Z,17.78
2023-03-16T13:09:09.863Z,18.16
2023-03-16T13:11:50.150Z,18.37
2023-03-16T13:14:35.710Z,18.46
2023-03-16T13:17:06.451Z,19.22
2023-03-16T13:19:37.864Z,19.75
2023-03-16T13:22:21.981Z,19.02
2023-03-16T13:24:55.075Z,18.48
2023-03-16T13:27:28.452Z,18.17
2023-03-16T13:29:59.296Z,18.39
2023-03-16T13:32:32.464Z,17.88
2023-03-16T13:35:03.448Z,18.02
2023-03-16T13:37:32.351Z,18.19
2023-03-16T13:40:04.568Z,18.80
2023-03-16T13:42:34.821Z,19.07
2023-03-16T13:45:15.221Z,18.45
2023-03-16T13:47:45.283Z,17.63
2023-03-16T13:50:15.952Z,17.25
2023-03-16T13:52:51.509Z,17.59
2023-03-16T13:55:32.661Z,17.24
2023-03-16T13:58:03.867Z,17.35
2023-03-16T14:00:35.697Z,17.06
2023-03-16T14:03:16.156Z,16.95
2023-03-16T14:05:50.596Z,17.07
2023-03-16T14:08:21.135Z,16.67
2023-03-16T14:10:50.730Z,16.47
2023-03-16T14:13:36.254Z,16.64
2023-03-16T14:16:12.875Z,16.93
2023-03-16T14:18:43.185Z,17.09
2023-03-16T14:21:17.645Z,17.43
2023-03-16T14:23:48.064Z,18.02
2023-03-16T14:26:18.692Z,17.53
2023-03-16T14:28:59.639Z,17.44
2023-03-16T14:31:36.318Z,16.39
2023-03-16T14:34:08.714Z,15.45
2023-03-16T14:36:39.163Z,14.87
2023-03-16T14:39:14.002Z,14.57
2023-03-16T14:41:42.424Z,14.39
2023-03-16T14:44:21.663Z,14.09
2023-03-16T14:46:50.605Z,14.27
2023-03-16T14:49:23.514Z,14.44
2023-03-16T14:51:54.478Z,14.27
2023-03-16T14:54:23.786Z,14.08
2023-03-16T14:56:54.182Z,13.96
2023-03-16T14:59:24.000Z,14.01
2023-03-16T15:01:54.554Z,14.20
2023-03-16T15:04:28.820Z,13.99
2023-03-16T15:06:58.507Z,13.78
2023-03-16T15:09:35.270Z,13.59
2023-03-16T15:12:21.590Z,13.43
2023-03-16T15:15:09.406Z,13.38
2023-03-16T15:17:38.921Z,13.44
2023-03-16T15:20:08.511Z,13.37
2023-03-16T15:22:40.499Z,13.32
2023-03-16T15:25:36.135Z,13.16
2023-03-16T15:28:12.878Z,12.90
2023-03-16T15:30:43.216Z,12.78
2023-03-16T15:33:12.679Z,12.81
2023-03-16T15:35:42.589Z,12.81
2023-03-16T15:38:15.357Z,12.73
2023-03-16T15:40:45.656Z,12.68
2023-03-16T15:43:16.319Z,12.49
2023-03-16T15:45:47.790Z,12.46
2023-03-16T15:48:17.400Z,12.40
2023-03-16T15:50:52.717Z,12.41
2023-03-16T15:53:30.944Z,12.34
2023-03-16T15:56:03.133Z,12.45
2023-03-16T15:58:33.992Z,12.42
2023-03-16T16:01:05.915Z,12.40
2023-03-16T16:03:34.779Z,12.36
2023-03-16T16:06:03.242Z,12.25
2023-03-16T16:08:31.638Z,12.31
2023-03-16T16:11:00.327Z,12.30
2023-03-16T16:13:43.411Z,12.35
2023-03-16T16:16:17.637Z,12.22
2023-03-16T16:18:47.381Z,12.12
2023-03-16T16:21:18.158Z,12.10
2023-03-16T16:23:47.704Z,12.13
2023-03-16T16:26:26.274Z,12.04
2023-03-16T16:28:58.561Z,11.90
2023-03-16T16:31:31.408Z,11.82
2023-03-16T16:34:00.064Z,11.73
2023-03-16T16:36:32.369Z,11.65
2023-03-16T16:39:00.866Z,11.69
2023-03-16T16:41:30.912Z,11.61
2023-03-16T16:44:05.112Z,11.57
2023-03-16T16:46:40.079Z,11.50
2023-03-16T16:49:15.418Z,11.47
2023-03-16T16:51:43.852Z,11.43
2023-03-16T16:54:16.667Z,11.30
2023-03-16T16:56:46.176Z,11.19
2023-03-16T16:59:18.078Z,11.04
2023-03-16T17:01:50.649Z,11.02
2023-03-16T17:04:23.225Z,10.98
2023-03-16T17:06:55.266Z,10.91
2023-03-16T17:09:24.784Z,10.76
2023-03-16T17:11:56.054Z,10.65
2023-03-16T17:14:27.495Z,10.67
2023-03-16T17:16:59.763Z,10.64
2023-03-16T17:19:29.086Z,10.62
2023-03-16T17:21:58.691Z,10.58
2023-03-16T17:24:27.397Z,10.55
2023-03-16T17:26:58.633Z,10.52
2023-03-16T17:29:29.838Z,10.38
2023-03-16T17:32:00.690Z,10.31
2023-03-16T17:34:31.101Z,10.23
2023-03-16T17:36:59.575Z,10.20
2023-03-16T17:39:29.877Z,10.17
2023-03-16T17:42:00.766Z,10.05
2023-03-16T17:44:33.716Z,9.96
2023-03-16T17:47:03.539Z,9.93
2023-03-16T17:49:32.545Z,9.94
2023-03-16T17:52:01.549Z,9.94
2023-03-16T17:54:29.933Z,9.87
2023-03-16T17:56:58.275Z,9.73
2023-03-16T17:59:27.352Z,9.69
2023-03-16T18:01:55.900Z,9.61
2023-03-16T18:04:27.387Z,9.57
2023-03-16T18:06:56.543Z,9.47
2023-03-16T18:09:24.853Z,9.46
2023-03-16T18:11:53.240Z,9.40
2023-03-16T18:14:26.325Z,9.36
2023-03-16T18:16:55.456Z,9.33
2023-03-16T18:19:27.085Z,9.32
2023-03-16T18:21:55.482Z,9.30
2023-03-16T18:24:26.609Z,9.27
2023-03-16T18:26:55.964Z,9.26
2023-03-16T18:29:24.348Z,9.32
2023-03-16T18:31:56.138Z,9.31
2023-03-16T18:34:32.149Z,9.25
2023-03-16T18:37:06.050Z,9.33
2023-03-16T18:39:34.593Z,9.27
2023-03-16T18:42:03.628Z,9.34
2023-03-16T18:44:32.699Z,9.26
2023-03-16T18:47:04.083Z,9.26
2023-03-16T18:49:36.429Z,9.28
2023-03-16T18:52:05.210Z,9.23
2023-03-16T18:54:36.371Z,9.24
2023-03-16T18:57:15.386Z,9.26
2023-03-16T18:59:43.782Z,9.22
2023-03-16T19:02:28.332Z,9.22
2023-03-16T19:05:01.464Z,9.18
2023-03-16T19:07:33.526Z,9.28
2023-03-16T19:10:04.271Z,9.27
2023-03-16T19:12:32.736Z,9.25
2023-03-16T19:15:01.134Z,9.24
2023-03-16T19:17:29.505Z,9.33
2023-03-16T19:19:59.439Z,9.27
2023-03-16T19:22:28.037Z,9.28
2023-03-16T19:24:56.807Z,9.41
2023-03-16T19:27:27.680Z,9.38
2023-03-16T19:29:56.647Z,9.37
2023-03-16T19:32:25.086Z,9.34
2023-03-16T19:34:53.624Z,9.38
2023-03-16T19:37:23.872Z,9.35
2023-03-16T19:39:52.533Z,9.42
2023-03-16T19:42:23.293Z,9.33
2023-03-16T19:44:52.047Z,9.27
2023-03-16T19:47:27.434Z,9.32
2023-03-16T19:49:56.898Z,9.37
2023-03-16T19:52:28.093Z,9.34
2023-03-16T19:54:56.413Z,9.37
2023-03-16T19:57:25.222Z,9.34
2023-03-16T19:59:57.459Z,9.38
2023-03-16T20:02:27.643Z,9.46
2023-03-16T20:04:57.315Z,9.47
2023-03-16T20:07:27.192Z,9.49
2023-03-16T20:09:55.674Z,9.49
2023-03-16T20:12:27.082Z,9.45
2023-03-16T20:14:57.392Z,9.39
2023-03-16T20:17:28.270Z,9.42
2023-03-16T20:19:57.596Z,9.48
2023-03-16T20:22:29.147Z,9.49
2023-03-16T20:24:57.912Z,9.52
2023-03-16T20:27:28.696Z,9.51
2023-03-16T20:29:57.307Z,9.57
2023-03-16T20:32:32.251Z,9.58
2023-03-16T20:35:00.797Z,9.64
2023-03-16T20:37:32.218Z,9.67
2023-03-16T20:40:01.407Z,9.67
2023-03-16T20:42:31.974Z,9.71
2023-03-16T20:45:01.189Z,9.69
2023-03-16T20:47:29.516Z,9.75
2023-03-16T20:49:58.204Z,9.69
2023-03-16T20:52:30.989Z,9.74
2023-03-16T20:55:00.953Z,9.80
2023-03-16T20:57:30.103Z,9.82
2023-03-16T20:59:59.851Z,9.70
2023-03-16T21:02:31.862Z,9.84
2023-03-16T21:05:01.652Z,9.79
2023-03-16T21:07:31.145Z,9.83
2023-03-16T21:10:00.927Z,9.79
2023-03-16T21:12:32.141Z,9.78
2023-03-16T21:15:02.460Z,9.81
2023-03-16T21:17:33.731Z,9.73
2023-03-16T21:20:02.338Z,9.74
2023-03-16T21:22:32.640Z,9.75
2023-03-16T21:25:02.512Z,9.81
2023-03-16T21:27:32.826Z,9.82
2023-03-16T21:30:07.293Z,9.79
2023-03-16T21:32:35.981Z,9.82
2023-03-16T21:35:05.120Z,9.84
2023-03-16T21:37:34.817Z,9.83
2023-03-16T21:40:15.434Z,9.84
2023-03-16T21:42:43.787Z,9.83
2023-03-16T21:45:12.575Z,9.92
2023-03-16T21:47:41.982Z,9.91
2023-03-16T21:50:17.233Z,9.92
2023-03-16T21:52:46.712Z,9.98
2023-03-16T21:55:30.244Z,9.95
2023-03-16T21:57:59.577Z,9.99
2023-03-16T22:00:30.598Z,10.11
2023-03-16T22:03:01.358Z,10.13
2023-03-16T22:05:33.810Z,10.07
2023-03-16T22:08:08.140Z,10.09
2023-03-16T22:10:39.780Z,10.17
2023-03-16T22:13:08.489Z,10.21
2023-03-16T22:15:37.802Z,10.18
2023-03-16T22:18:09.670Z,10.18
2023-03-16T22:20:38.115Z,10.30
2023-03-16T22:23:06.546Z,10.30
2023-03-16T22:25:34.882Z,10.22
2023-03-16T22:28:12.482Z,10.19
2023-03-16T22:30:41.701Z,10.23
2023-03-16T22:33:17.033Z,10.23
2023-03-16T22:35:46.079Z,10.17
2023-03-16T22:38:16.408Z,10.26
2023-03-16T22:40:44.878Z,10.24
2023-03-16T22:43:18.529Z,10.28
2023-03-16T22:45:48.579Z,10.30
2023-03-16T22:48:20.472Z,10.19
2023-03-16T22:50:50.121Z,10.30
2023-03-16T22:53:22.030Z,10.38
2023-03-16T22:55:52.266Z,10.46
2023-03-16T22:58:30.667Z,10.52
2023-03-16T23:01:01.860Z,10.52
2023-03-16T23:03:30.870Z,10.57
2023-03-16T23:05:59.629Z,10.48
2023-03-16T23:08:28.471Z,10.44
2023-03-16T23:10:57.005Z,10.56
2023-03-16T23:13:27.017Z,10.56
2023-03-16T23:15:56.747Z,10.52
2023-03-16T23:18:26.843Z,10.49
2023-03-16T23:20:55.244Z,10.50
2023-03-16T23:23:23.569Z,10.39
2023-03-16T23:25:51.933Z,10.32
2023-03-16T23:28:24.201Z,10.37
2023-03-16T23:30:54.092Z,10.42
2023-03-16T23:33:23.006Z,10.44
2023-03-16T23:35:51.537Z,10.41
2023-03-16T23:38:20.092Z,10.45
2023-03-16T23:40:49.304Z,10.50
2023-03-16T23:43:17.761Z,10.43
2023-03-16T23:45:47.541Z,10.41
2023-03-16T23:48:20.080Z,10.39
2023-03-16T23:50:50.357Z,10.35
2023-03-16T23:53:20.376Z,10.33
2023-03-16T23:55:49.064Z,10.27
2023-03-16T23:58:17.466Z,10.30
